Terminal Aerodrome Forecast
Issued by NWS Wilmington, OH

Current Version | Previous Version | Graphics & Text | Print | Product List | Glossary On
Versions: 1 2 3 4 5 6 7 8 9 10 11 12 13 14 15 16 17 18 19 20 21
573
FTUS41 KILN 241457 AAA
TAFCVG
TAF AMD
KCVG 241457Z 2415/2518 07008KT P6SM FEW040
     FM250000 13003KT P6SM SKC
     FM251400 20005KT P6SM SCT250=

USA.gov is the U.S. government's official web portal to all federal, state and local government web resources and services.